Time;durP1;ratioP1;P1;durP2;ratioP2;P2;SDS_P1;SDS_P2;PMS_P1;PMS_P2;Temp;Humidity;BMP_temperature;BMP_pressure;BME280_temperature;BME280_humidity;BME280_pressure;Samples;Min_cycle;Max_cycle;Signal;HPM_P1;HPM_P2
2022/01/25 00:29:05;;;;;;;32.67;16.67;;;1.10;95.20;;;;;;5091615;28;20683;-69
2022/01/25 00:31:16;;;;;;;34.55;16.63;;;1.20;95.10;;;;;;5082304;28;20860;-71
2022/01/25 00:33:53;;;;;;;37.53;17.17;;;1.20;95.10;;;;;;5092430;28;20179;-71
2022/01/25 00:36:22;;;;;;;35.08;17.75;;;1.20;95.00;;;;;;5090667;28;20171;-70
2022/01/25 00:38:49;;;;;;;38.13;17.13;;;1.10;95.00;;;;;;5091519;28;20190;-70
2022/01/25 00:41:16;;;;;;;36.53;17.10;;;1.10;95.00;;;;;;5092174;28;20222;-71
2022/01/25 00:43:42;;;;;;;39.92;17.23;;;1.00;95.10;;;;;;5092126;28;20203;-69
2022/01/25 00:46:10;;;;;;;37.75;17.55;;;1.00;95.20;;;;;;5091011;28;20219;-71
2022/01/25 00:48:45;;;;;;;31.63;15.88;;;1.00;95.40;;;;;;5091956;28;20237;-70
2022/01/25 00:53:57;;;;;;;37.28;16.00;;;1.00;95.60;;;;;;5091676;28;20190;-70
2022/01/25 00:56:28;;;;;;;29.40;15.13;;;1.10;95.60;;;;;;5091084;28;20304;-70
2022/01/25 00:58:54;;;;;;;32.90;16.10;;;1.10;95.60;;;;;;5091960;28;20179;-70
2022/01/25 01:01:21;;;;;;;32.10;15.53;;;1.10;95.50;;;;;;5092173;28;20210;-71
2022/01/25 01:03:47;;;;;;;31.20;16.42;;;1.00;95.50;;;;;;5092017;28;20229;-68
2022/01/25 01:06:14;;;;;;;43.40;18.47;;;1.00;95.50;;;;;;5091826;28;20179;-70
2022/01/25 01:08:40;;;;;;;35.40;17.40;;;1.00;95.40;;;;;;5092446;28;20252;-72
2022/01/25 01:11:10;;;;;;;33.13;15.55;;;1.00;95.30;;;;;;5095163;28;20251;-71
2022/01/25 01:43:16;;;;;;;33.20;18.17;;;0.80;95.30;;;;;;5092365;28;20198;-71
2022/01/25 01:45:51;;;;;;;34.45;17.05;;;0.70;95.50;;;;;;5092209;28;20304;-73
2022/01/25 01:48:32;;;;;;;38.78;17.42;;;0.70;95.60;;;;;;5093300;28;20194;-70
2022/01/25 01:51:08;;;;;;;37.88;17.23;;;0.70;95.70;;;;;;5092449;28;20179;-69
2022/01/25 01:53:34;;;;;;;31.70;16.92;;;0.70;95.70;;;;;;5093175;28;20642;-71
2022/01/25 01:56:00;;;;;;;35.63;17.08;;;0.70;95.80;;;;;;5093564;28;20183;-70
2022/01/25 01:58:26;;;;;;;39.00;17.90;;;0.70;95.80;;;;;;5090957;28;20822;-71
2022/01/25 02:00:53;;;;;;;36.80;15.88;;;0.70;95.80;;;;;;5092368;28;20230;-71
2022/01/25 02:03:19;;;;;;;33.25;16.52;;;0.70;95.70;;;;;;5093513;28;20258;-70
2022/01/25 02:05:45;;;;;;;40.70;17.70;;;0.60;95.60;;;;;;5092218;28;20183;-69
2022/01/25 02:08:11;;;;;;;36.17;17.10;;;0.60;95.60;;;;;;5095524;28;20199;-69
2022/01/25 02:10:37;;;;;;;35.88;16.83;;;0.60;95.70;;;;;;5096627;28;20965;-70
2022/01/25 02:13:05;;;;;;;34.90;18.10;;;0.60;95.70;;;;;;5097808;28;20187;-70
2022/01/25 02:15:31;;;;;;;35.60;17.27;;;0.60;95.60;;;;;;5090003;28;20432;-72
2022/01/25 02:23:18;;;;;;;42.08;18.75;;;0.60;95.70;;;;;;5096203;28;20274;-71
2022/01/25 02:25:45;;;;;;;38.88;17.52;;;0.50;95.80;;;;;;5101022;28;20190;-71
2022/01/25 02:28:12;;;;;;;34.80;18.40;;;0.50;95.80;;;;;;5090240;28;20247;-69
2022/01/25 02:30:38;;;;;;;40.22;17.65;;;0.50;95.80;;;;;;5089997;28;20221;-70
2022/01/25 02:33:04;;;;;;;38.95;19.38;;;0.50;95.90;;;;;;5090513;28;20629;-71
2022/01/25 02:35:30;;;;;;;61.13;25.90;;;0.50;95.90;;;;;;5090098;28;20183;-71
2022/01/25 02:37:56;;;;;;;42.00;20.27;;;0.60;95.90;;;;;;5093603;28;20637;-70
2022/01/25 02:40:22;;;;;;;42.60;20.13;;;0.50;95.80;;;;;;5095838;28;20514;-69
2022/01/25 02:42:49;;;;;;;43.40;19.00;;;0.50;95.90;;;;;;5090669;28;20421;-69
2022/01/25 02:45:16;;;;;;;43.33;19.25;;;0.50;95.90;;;;;;5090571;28;20448;-70
2022/01/25 02:50:27;;;;;;;43.22;18.85;;;0.50;96.00;;;;;;5094120;28;20316;-71
2022/01/25 02:52:52;;;;;;;40.53;18.40;;;0.40;96.00;;;;;;5094250;28;20183;-72
2022/01/25 02:55:18;;;;;;;47.33;19.03;;;0.50;96.00;;;;;;5093534;28;20190;-71
2022/01/25 02:57:45;;;;;;;45.70;20.05;;;0.40;96.00;;;;;;5094551;28;20199;-71
2022/01/25 03:00:12;;;;;;;40.15;19.58;;;0.40;96.20;;;;;;5094158;28;20567;-70
2022/01/25 03:02:38;;;;;;;48.38;21.30;;;0.40;96.20;;;;;;5093610;28;21000;-70
2022/01/25 03:05:05;;;;;;;49.10;21.40;;;0.50;96.20;;;;;;5093913;28;20187;-69
2022/01/25 03:07:31;;;;;;;41.08;19.08;;;0.40;96.00;;;;;;5096222;28;20504;-68
2022/01/25 03:09:59;;;;;;;44.08;20.75;;;0.40;95.90;;;;;;5096284;28;20262;-69
2022/01/25 03:12:37;;;;;;;34.92;18.10;;;0.40;95.90;;;;;;5098767;28;20558;-69
2022/01/25 03:17:50;;;;;;;49.08;20.42;;;0.40;96.00;;;;;;5098468;28;20213;-68
2022/01/25 03:20:22;;;;;;;41.55;20.20;;;0.40;96.20;;;;;;5099731;28;20203;-69
2022/01/25 03:25:25;;;;;;;47.50;21.00;;;0.40;96.20;;;;;;5093801;28;20178;-70
2022/01/25 03:27:51;;;;;;;47.17;21.23;;;0.30;96.20;;;;;;5093632;28;20191;-70
2022/01/25 03:30:17;;;;;;;51.27;23.63;;;0.30;96.00;;;;;;5093191;28;20600;-69
2022/01/25 03:32:43;;;;;;;41.83;20.33;;;0.30;96.10;;;;;;5092846;28;20412;-69
2022/01/25 03:35:09;;;;;;;48.57;21.20;;;0.30;96.10;;;;;;5094503;28;20421;-70
2022/01/25 03:37:35;;;;;;;51.63;23.23;;;0.20;96.10;;;;;;5093638;28;20234;-69
2022/01/25 03:40:00;;;;;;;49.90;22.30;;;0.20;96.10;;;;;;5093829;28;20304;-69
2022/01/25 03:42:26;;;;;;;48.67;21.10;;;0.20;96.10;;;;;;5094198;28;20721;-69
2022/01/25 03:44:52;;;;;;;54.50;24.07;;;0.20;96.20;;;;;;5094855;28;20258;-69
2022/01/25 03:47:22;;;;;;;49.10;21.57;;;0.20;96.30;;;;;;5092787;28;20230;-69
2022/01/25 03:49:50;;;;;;;48.55;22.30;;;0.20;96.30;;;;;;5092133;28;20426;-70
2022/01/25 03:52:25;;;;;;;61.05;23.90;;;0.20;96.40;;;;;;5095660;28;20207;-70
2022/01/25 03:54:51;;;;;;;45.38;21.80;;;0.10;96.40;;;;;;5093809;28;20261;-71
2022/01/25 03:57:17;;;;;;;49.37;22.70;;;0.10;96.50;;;;;;5093526;28;20635;-71
2022/01/25 03:59:44;;;;;;;40.70;20.30;;;0.20;96.60;;;;;;5094313;28;20277;-71
2022/01/25 04:02:10;;;;;;;47.63;21.10;;;0.20;96.60;;;;;;5097337;28;20519;-69
2022/01/25 04:04:36;;;;;;;43.30;21.17;;;0.20;96.50;;;;;;5094726;28;20186;-69
2022/01/25 04:07:08;;;;;;;55.67;24.40;;;0.10;96.40;;;;;;5092879;28;20198;-70
2022/01/25 04:09:35;;;;;;;45.80;21.65;;;0.10;96.40;;;;;;5094225;28;20179;-69
2022/01/25 04:12:01;;;;;;;41.67;20.38;;;0.00;96.40;;;;;;5093616;28;20179;-71
2022/01/25 04:14:28;;;;;;;50.88;21.92;;;0.10;96.70;;;;;;5093439;28;20179;-72
2022/01/25 04:17:02;;;;;;;49.20;21.85;;;0.10;96.70;;;;;;5092996;28;20222;-71
2022/01/25 04:25:06;;;;;;;49.72;20.45;;;0.10;96.70;;;;;;5093299;28;20197;-70
2022/01/25 04:27:33;;;;;;;47.20;22.15;;;0.10;96.70;;;;;;5092758;28;20195;-70
2022/01/25 04:29:59;;;;;;;44.17;21.63;;;0.10;96.70;;;;;;5093348;28;20187;-70
2022/01/25 04:33:01;;;;;;;54.30;20.23;;;0.00;96.70;;;;;;5093339;28;20184;-72
2022/01/25 05:01:40;;;;;;;48.72;22.10;;;0.00;96.80;;;;;;5091595;28;20240;-70
2022/01/25 05:04:11;;;;;;;49.00;21.23;;;0.00;96.80;;;;;;5091465;28;20186;-69
2022/01/25 05:06:37;;;;;;;47.83;21.35;;;0.10;96.80;;;;;;5089572;28;20191;-71
2022/01/25 05:09:08;;;;;;;50.47;24.80;;;0.10;96.70;;;;;;5091945;28;20195;-70
2022/01/25 05:11:36;;;;;;;51.33;22.35;;;0.10;96.60;;;;;;5089518;28;20228;-70
2022/01/25 05:16:35;;;;;;;50.17;21.58;;;0.10;96.40;;;;;;5090745;28;20266;-71
2022/01/25 05:24:42;;;;;;;54.72;23.48;;;0.00;96.60;;;;;;5091027;28;20220;-71
2022/01/25 05:27:11;;;;;;;49.70;21.17;;;-0.10;96.60;;;;;;5090405;28;20651;-71
2022/01/25 05:29:37;;;;;;;49.53;23.48;;;-0.10;96.60;;;;;;5090317;28;20633;-71
2022/01/25 05:32:03;;;;;;;52.37;25.10;;;-0.10;96.70;;;;;;5091470;28;20218;-70
2022/01/25 05:34:29;;;;;;;51.53;23.60;;;-0.10;96.80;;;;;;5090334;28;20183;-71
2022/01/25 05:36:54;;;;;;;44.03;22.33;;;-0.10;96.80;;;;;;5091301;28;20642;-70
2022/01/25 05:39:26;;;;;;;50.23;22.93;;;-0.10;96.90;;;;;;5091607;28;20605;-68
2022/01/25 05:41:58;;;;;;;49.65;22.55;;;-0.10;96.90;;;;;;5092146;28;20175;-71
2022/01/25 05:49:23;;;;;;;53.15;22.30;;;-0.10;96.80;;;;;;5090792;28;20590;-70
2022/01/25 05:51:49;;;;;;;47.30;22.70;;;-0.10;96.70;;;;;;5090854;28;20179;-69
2022/01/25 05:54:15;;;;;;;51.17;22.00;;;-0.10;96.70;;;;;;5090997;28;20293;-68
2022/01/25 05:56:41;;;;;;;49.13;23.53;;;-0.10;96.70;;;;;;5089914;28;20211;-70
2022/01/25 05:59:07;;;;;;;46.80;21.33;;;-0.10;96.70;;;;;;5091182;28;20959;-69
2022/01/25 06:01:34;;;;;;;52.25;22.27;;;0.00;96.70;;;;;;5089614;28;20463;-69
2022/01/25 06:04:00;;;;;;;50.25;22.55;;;0.00;96.70;;;;;;5090437;28;20610;-69
2022/01/25 06:06:27;;;;;;;46.70;21.63;;;0.00;96.60;;;;;;5089706;28;20199;-70
2022/01/25 06:08:53;;;;;;;52.67;21.77;;;0.00;96.60;;;;;;5091024;28;20508;-68
2022/01/25 06:11:20;;;;;;;43.28;21.08;;;0.00;96.40;;;;;;5090543;28;20613;-70
2022/01/25 06:13:46;;;;;;;46.50;21.73;;;0.00;96.20;;;;;;5091046;28;20222;-70
2022/01/25 06:16:12;;;;;;;43.35;21.35;;;0.00;96.30;;;;;;5090374;28;20228;-70
2022/01/25 06:18:38;;;;;;;46.97;21.67;;;0.00;96.20;;;;;;5092037;28;20199;-71
2022/01/25 06:21:03;;;;;;;49.00;21.87;;;0.10;96.30;;;;;;5095052;28;20199;-71
2022/01/25 06:23:29;;;;;;;49.50;22.23;;;0.10;96.30;;;;;;5093163;28;20641;-70
2022/01/25 06:25:55;;;;;;;50.47;23.77;;;0.10;96.40;;;;;;5092303;28;20874;-70
2022/01/25 06:28:21;;;;;;;41.37;20.37;;;0.00;96.20;;;;;;5092736;28;20592;-71
2022/01/25 06:30:47;;;;;;;44.10;21.00;;;0.00;96.20;;;;;;5092838;28;20672;-71
2022/01/25 06:33:13;;;;;;;41.00;20.63;;;0.00;96.20;;;;;;5091427;28;20179;-71
2022/01/25 06:35:38;;;;;;;52.78;23.10;;;-0.10;96.20;;;;;;5090522;28;20186;-71
2022/01/25 06:38:04;;;;;;;50.53;21.73;;;0.00;96.30;;;;;;5091057;28;20202;-70
2022/01/25 06:40:30;;;;;;;44.17;20.73;;;0.00;96.30;;;;;;5091030;28;20195;-70
2022/01/25 06:42:56;;;;;;;48.93;21.80;;;0.00;96.20;;;;;;5091291;28;20171;-71
2022/01/25 06:45:24;;;;;;;49.73;22.17;;;0.00;96.10;;;;;;5090857;28;20457;-69
2022/01/25 06:47:51;;;;;;;43.65;20.85;;;0.10;96.10;;;;;;5091060;28;20195;-70
2022/01/25 06:50:18;;;;;;;52.03;23.00;;;0.10;96.10;;;;;;5091110;28;20175;-68
2022/01/25 06:52:45;;;;;;;44.50;22.13;;;0.10;96.00;;;;;;5090001;28;20768;-73
2022/01/25 06:55:13;;;;;;;47.97;22.25;;;0.00;95.90;;;;;;5090284;28;20258;-70
2022/01/25 06:57:39;;;;;;;47.30;22.90;;;0.00;95.90;;;;;;5090492;28;20203;-71
2022/01/25 07:00:09;;;;;;;46.47;21.42;;;0.00;96.00;;;;;;5090969;28;20203;-69
2022/01/25 07:02:35;;;;;;;47.72;22.75;;;-0.10;96.10;;;;;;5089183;28;20187;-71
2022/01/25 07:05:02;;;;;;;58.97;24.67;;;-0.10;96.10;;;;;;5090551;28;20176;-70
2022/01/25 07:07:29;;;;;;;47.90;22.30;;;0.00;96.20;;;;;;5091031;28;20771;-70
2022/01/25 07:09:54;;;;;;;50.90;23.30;;;0.00;96.20;;;;;;5091040;28;20605;-69
2022/01/25 07:12:20;;;;;;;43.53;21.63;;;0.00;96.20;;;;;;5098206;28;20179;-71
2022/01/25 07:14:46;;;;;;;50.00;22.73;;;0.00;96.10;;;;;;5093092;28;20198;-70
2022/01/25 07:17:12;;;;;;;51.30;24.50;;;0.00;96.00;;;;;;5091561;28;20577;-70
2022/01/25 07:19:37;;;;;;;63.13;27.83;;;0.00;95.90;;;;;;5089802;28;21107;-70
2022/01/25 07:22:03;;;;;;;60.13;26.00;;;0.00;95.80;;;;;;5089648;28;20175;-72
2022/01/25 07:24:29;;;;;;;53.40;25.87;;;-0.10;95.70;;;;;;5088934;28;20660;-70
2022/01/25 07:26:55;;;;;;;52.23;24.67;;;-0.10;95.90;;;;;;5090103;28;20437;-70
2022/01/25 07:29:20;;;;;;;39.40;20.60;;;-0.10;96.00;;;;;;5090211;28;20195;-71
2022/01/25 07:31:46;;;;;;;53.77;23.33;;;-0.10;96.00;;;;;;5091184;28;20309;-70
2022/01/25 07:34:12;;;;;;;47.50;22.07;;;0.00;96.10;;;;;;5092636;28;20190;-70
2022/01/25 07:36:41;;;;;;;45.97;22.25;;;0.00;96.10;;;;;;5094052;28;20183;-70
2022/01/25 07:39:07;;;;;;;54.60;22.95;;;0.00;96.10;;;;;;5094931;28;20187;-68
2022/01/25 07:41:33;;;;;;;44.20;20.60;;;0.00;96.00;;;;;;5094257;28;20215;-70
2022/01/25 07:43:59;;;;;;;49.50;21.47;;;0.10;96.00;;;;;;5094336;28;20258;-71
2022/01/25 07:46:25;;;;;;;61.50;26.85;;;0.10;95.90;;;;;;5090760;28;20472;-69
2022/01/25 07:48:52;;;;;;;45.45;22.50;;;0.10;95.80;;;;;;5094205;28;20565;-70
2022/01/25 07:51:19;;;;;;;55.20;23.08;;;0.10;95.80;;;;;;5094191;28;20220;-71
2022/01/25 07:53:44;;;;;;;53.13;21.77;;;0.10;95.80;;;;;;5094159;28;20183;-71
2022/01/25 07:56:10;;;;;;;48.27;22.97;;;0.10;95.70;;;;;;5093297;28;20925;-70
2022/01/25 07:58:37;;;;;;;55.60;24.10;;;0.00;95.50;;;;;;5098181;28;20614;-71
2022/01/25 08:01:03;;;;;;;50.95;23.48;;;0.00;95.50;;;;;;5092789;28;20464;-70
2022/01/25 08:03:29;;;;;;;44.95;22.75;;;0.00;95.40;;;;;;5093893;28;20209;-71
2022/01/25 08:05:55;;;;;;;51.50;23.40;;;-0.10;95.40;;;;;;5093474;28;20179;-71
2022/01/25 08:08:21;;;;;;;49.73;23.20;;;0.00;95.50;;;;;;5094223;28;20255;-71
2022/01/25 08:10:47;;;;;;;47.30;22.43;;;0.10;95.50;;;;;;5094179;28;20840;-68
2022/01/25 08:13:13;;;;;;;49.63;22.53;;;0.10;95.50;;;;;;5093921;28;20418;-70
2022/01/25 08:15:39;;;;;;;43.87;22.57;;;0.10;95.50;;;;;;5093580;28;20179;-71
2022/01/25 08:18:05;;;;;;;43.42;21.30;;;0.20;95.50;;;;;;5093456;28;20580;-69
2022/01/25 08:20:32;;;;;;;52.00;23.58;;;0.30;95.40;;;;;;5093220;28;20210;-71
2022/01/25 08:22:57;;;;;;;56.38;24.15;;;0.30;95.10;;;;;;5094411;28;20603;-70
2022/01/25 08:25:23;;;;;;;55.50;22.33;;;0.30;95.10;;;;;;5092363;28;20262;-69
2022/01/25 08:27:49;;;;;;;48.40;21.73;;;0.30;95.00;;;;;;5094028;28;20429;-71
2022/01/25 08:30:15;;;;;;;46.87;21.07;;;0.30;94.80;;;;;;5094579;28;20185;-71
2022/01/25 08:32:42;;;;;;;49.13;23.02;;;0.40;94.80;;;;;;5093704;28;20183;-71
2022/01/25 08:35:09;;;;;;;51.33;23.00;;;0.40;94.70;;;;;;5093335;28;20186;-71
2022/01/25 08:37:35;;;;;;;52.45;25.40;;;0.50;94.60;;;;;;5093216;28;20645;-70
2022/01/25 08:40:02;;;;;;;46.45;21.27;;;0.50;94.50;;;;;;5093750;28;20226;-71
2022/01/25 08:42:28;;;;;;;52.65;23.58;;;0.50;94.50;;;;;;5093959;28;20216;-71
2022/01/25 08:44:54;;;;;;;51.30;23.33;;;0.60;94.30;;;;;;5084950;28;20198;-69
2022/01/25 08:47:19;;;;;;;51.87;24.30;;;0.60;94.20;;;;;;5092784;28;20191;-71
2022/01/25 08:49:45;;;;;;;50.57;23.00;;;0.60;94.10;;;;;;5093963;28;20431;-70
2022/01/25 08:52:11;;;;;;;84.27;35.83;;;0.60;94.10;;;;;;5092944;28;20179;-71
2022/01/25 08:54:37;;;;;;;85.87;41.50;;;0.70;94.00;;;;;;5093030;28;20207;-71
2022/01/25 08:57:04;;;;;;;100.60;49.47;;;0.80;93.80;;;;;;5093329;28;20199;-71
2022/01/25 08:59:30;;;;;;;95.55;44.63;;;0.80;93.60;;;;;;5093462;28;20823;-70
2022/01/25 09:01:55;;;;;;;117.63;53.25;;;0.80;93.60;;;;;;5093700;28;20258;-71
2022/01/25 09:04:21;;;;;;;136.37;56.50;;;0.90;93.70;;;;;;5093431;28;20206;-71
2022/01/25 09:06:47;;;;;;;132.03;57.77;;;1.00;93.70;;;;;;5092922;28;20195;-70
2022/01/25 09:09:13;;;;;;;100.87;51.00;;;1.10;93.70;;;;;;5093066;28;20417;-70
2022/01/25 09:11:41;;;;;;;88.50;41.20;;;1.10;93.50;;;;;;5093794;28;20171;-69
2022/01/25 09:14:08;;;;;;;82.93;39.00;;;1.20;93.40;;;;;;5093045;28;20553;-69
2022/01/25 09:16:35;;;;;;;78.20;39.40;;;1.30;93.30;;;;;;5092693;28;20182;-70
2022/01/25 09:19:01;;;;;;;71.25;35.53;;;1.40;93.00;;;;;;5093050;28;20191;-70
2022/01/25 09:21:27;;;;;;;81.97;40.85;;;1.50;92.70;;;;;;5100833;28;20286;-70
2022/01/25 09:23:54;;;;;;;77.10;37.05;;;1.60;92.60;;;;;;5099407;28;20175;-68
2022/01/25 09:26:22;;;;;;;75.35;36.45;;;1.70;92.50;;;;;;5092311;28;20175;-72
2022/01/25 09:28:50;;;;;;;63.88;31.77;;;1.70;92.10;;;;;;5092949;28;20780;-69
2022/01/25 09:31:16;;;;;;;78.50;32.08;;;1.70;92.00;;;;;;5093420;28;20175;-69
2022/01/25 09:33:42;;;;;;;59.33;29.63;;;1.80;91.90;;;;;;5094436;28;20187;-72
2022/01/25 09:36:08;;;;;;;66.87;32.57;;;1.90;91.80;;;;;;5093571;28;20276;-71
2022/01/25 09:38:33;;;;;;;62.63;29.03;;;2.00;91.50;;;;;;5094093;28;20962;-72
2022/01/25 09:41:00;;;;;;;59.07;27.83;;;2.20;91.20;;;;;;5096149;28;20206;-70
2022/01/25 09:43:27;;;;;;;70.88;28.83;;;2.20;90.30;;;;;;5093556;28;20525;-72
2022/01/25 09:45:54;;;;;;;61.58;28.88;;;2.30;89.60;;;;;;5090788;28;20233;-70
2022/01/25 09:48:20;;;;;;;65.47;29.45;;;2.40;89.50;;;;;;5092059;28;20201;-70
2022/01/25 09:50:47;;;;;;;56.60;28.50;;;2.50;88.90;;;;;;5092515;28;20187;-70
2022/01/25 09:53:13;;;;;;;60.22;28.17;;;2.50;88.90;;;;;;5090357;28;20486;-69
2022/01/25 09:55:41;;;;;;;66.55;29.67;;;2.60;88.90;;;;;;5089880;28;20556;-71
2022/01/25 09:58:07;;;;;;;62.78;28.10;;;2.70;88.30;;;;;;5090808;28;20207;-69
2022/01/25 10:00:35;;;;;;;55.70;27.23;;;2.80;87.40;;;;;;5090113;28;20290;-70
2022/01/25 10:03:20;;;;;;;57.63;27.98;;;2.80;87.30;;;;;;5093937;28;20199;-70
2022/01/25 10:05:49;;;;;;;61.92;28.67;;;2.90;87.40;;;;;;5091982;28;20186;-71
2022/01/25 10:08:25;;;;;;;51.95;25.70;;;3.00;87.00;;;;;;5100698;28;20195;-70
2022/01/25 10:11:04;;;;;;;52.63;27.30;;;3.00;86.30;;;;;;5101011;28;20192;-71
2022/01/25 10:13:34;;;;;;;52.95;27.85;;;3.10;86.50;;;;;;5102561;28;20202;-71
2022/01/25 10:16:02;;;;;;;66.93;31.63;;;3.20;86.50;;;;;;5098418;28;20179;-71
2022/01/25 10:18:44;;;;;;;59.33;26.58;;;3.20;86.50;;;;;;5098448;28;20258;-69
2022/01/25 10:21:11;;;;;;;52.08;25.20;;;3.30;86.30;;;;;;5094100;28;20203;-71
2022/01/25 10:23:37;;;;;;;52.15;24.77;;;3.40;86.00;;;;;;5087986;28;20175;-71
2022/01/25 10:26:04;;;;;;;49.83;25.87;;;3.50;85.90;;;;;;5090002;28;20544;-71
2022/01/25 10:28:31;;;;;;;53.72;23.88;;;3.50;85.90;;;;;;5090577;28;20267;-71
2022/01/25 10:30:59;;;;;;;56.35;23.23;;;3.50;86.00;;;;;;5089270;28;20191;-71
2022/01/25 10:33:39;;;;;;;55.75;24.90;;;3.40;85.90;;;;;;5090262;28;20188;-71
2022/01/25 10:36:11;;;;;;;48.97;23.90;;;3.40;86.50;;;;;;5084335;28;20236;-71
2022/01/25 10:38:37;;;;;;;48.53;23.55;;;3.50;86.20;;;;;;5085975;28;20782;-70
2022/01/25 10:41:09;;;;;;;45.97;23.60;;;3.50;86.30;;;;;;5089868;28;20288;-71
2022/01/25 10:43:37;;;;;;;52.75;24.60;;;3.70;85.90;;;;;;5089939;28;20421;-72
2022/01/25 10:46:06;;;;;;;46.67;24.37;;;3.90;84.90;;;;;;5088697;28;20191;-70
2022/01/25 10:48:32;;;;;;;49.17;23.13;;;4.30;84.40;;;;;;5089951;28;20448;-69
2022/01/25 10:51:09;;;;;;;53.27;24.87;;;4.50;82.70;;;;;;5090031;28;20424;-71
2022/01/25 10:53:36;;;;;;;49.70;24.53;;;4.80;81.50;;;;;;5089814;28;20620;-71
2022/01/25 10:56:04;;;;;;;42.97;21.37;;;5.00;80.50;;;;;;5088677;28;20420;-71
2022/01/25 10:58:29;;;;;;;59.40;22.83;;;5.10;80.20;;;;;;5089691;28;20502;-71
2022/01/25 11:00:55;;;;;;;39.37;21.67;;;5.30;79.20;;;;;;5089716;28;20461;-70
2022/01/25 11:03:28;;;;;;;43.03;22.30;;;5.10;78.10;;;;;;5090358;28;20259;-72
2022/01/25 11:05:55;;;;;;;51.67;22.73;;;5.20;78.90;;;;;;5085517;28;20429;-71
2022/01/25 11:08:24;;;;;;;57.13;23.07;;;5.40;78.40;;;;;;5089951;28;20788;-71
2022/01/25 11:10:59;;;;;;;45.50;22.60;;;5.50;77.00;;;;;;5092132;28;20421;-71
2022/01/25 11:15:53;;;;;;;42.77;21.30;;;6.00;75.50;;;;;;5092818;28;21133;-69
2022/01/25 11:18:20;;;;;;;40.93;21.90;;;6.30;75.50;;;;;;5092382;28;20586;-71
2022/01/25 11:20:46;;;;;;;51.23;25.27;;;6.70;74.50;;;;;;5093791;28;20463;-70
2022/01/25 11:23:12;;;;;;;47.93;21.97;;;7.10;73.30;;;;;;5095907;28;20884;-71
2022/01/25 11:25:40;;;;;;;38.97;22.13;;;7.30;70.70;;;;;;5092676;28;20551;-71
2022/01/25 11:28:06;;;;;;;44.80;21.73;;;7.50;70.70;;;;;;5093622;28;20792;-71
2022/01/25 11:30:32;;;;;;;46.33;23.50;;;7.70;70.10;;;;;;5092840;28;20424;-70
2022/01/25 11:32:59;;;;;;;50.57;23.57;;;7.40;69.50;;;;;;5093708;28;20781;-70
2022/01/25 11:35:26;;;;;;;42.60;22.33;;;7.10;70.20;;;;;;5090966;28;20183;-71
2022/01/25 11:37:53;;;;;;;43.53;23.77;;;6.70;71.70;;;;;;5093657;28;20441;-72
2022/01/25 11:40:25;;;;;;;56.50;27.30;;;6.40;72.90;;;;;;5092637;28;20449;-71
2022/01/25 11:42:53;;;;;;;49.63;24.37;;;6.20;74.30;;;;;;5094719;28;20410;-69
2022/01/25 11:45:22;;;;;;;47.23;24.50;;;6.00;75.10;;;;;;5093143;28;20436;-72
2022/01/25 11:47:49;;;;;;;44.20;24.90;;;5.70;76.40;;;;;;5093268;28;20966;-71
2022/01/25 11:50:15;;;;;;;50.60;24.70;;;5.30;78.10;;;;;;5093392;28;20474;-71
2022/01/25 11:52:52;;;;;;;45.03;24.93;;;5.20;79.30;;;;;;5092937;28;20421;-70
2022/01/25 11:55:26;;;;;;;48.70;27.00;;;5.20;79.70;;;;;;5093213;28;20433;-72
2022/01/25 11:57:59;;;;;;;59.47;27.80;;;5.10;80.20;;;;;;5093277;28;20472;-70
2022/01/25 12:00:47;;;;;;;50.13;25.47;;;5.00;80.80;;;;;;5093209;28;20468;-72
2022/01/25 12:03:44;;;;;;;49.10;25.57;;;5.00;80.90;;;;;;5092797;28;20436;-71
2022/01/25 12:06:34;;;;;;;49.90;25.77;;;4.80;81.40;;;;;;5090405;28;20420;-71
2022/01/25 12:11:38;;;;;;;55.77;25.70;;;4.70;83.00;;;;;;5093226;28;20409;-71
2022/01/25 12:14:24;;;;;;;52.53;26.90;;;4.70;83.30;;;;;;5086503;28;20425;-73
2022/01/25 12:16:54;;;;;;;47.33;26.63;;;4.80;83.30;;;;;;5092927;28;20437;-71
2022/01/25 12:19:31;;;;;;;53.55;26.15;;;4.70;83.40;;;;;;5092876;28;20962;-71
2022/01/25 12:22:16;;;;;;;56.17;24.93;;;4.50;84.10;;;;;;5084700;28;20657;-70
2022/01/25 12:24:49;;;;;;;59.60;27.67;;;4.50;84.70;;;;;;5091654;28;20416;-71
2022/01/25 12:27:29;;;;;;;54.87;26.23;;;4.40;85.20;;;;;;5092131;28;20424;-70
2022/01/25 12:30:04;;;;;;;59.50;27.70;;;4.40;85.60;;;;;;5091484;28;20409;-73
2022/01/25 12:32:47;;;;;;;66.70;26.88;;;4.50;85.60;;;;;;5090803;28;20428;-73
2022/01/25 12:35:15;;;;;;;57.07;27.37;;;4.50;85.70;;;;;;5085757;28;20815;-71
2022/01/25 12:37:44;;;;;;;62.67;27.93;;;4.50;85.60;;;;;;5091982;28;20838;-72
2022/01/25 12:40:25;;;;;;;66.93;27.60;;;4.30;86.30;;;;;;5092003;28;20904;-72
2022/01/25 12:43:01;;;;;;;57.77;28.77;;;4.10;87.30;;;;;;5092086;28;20434;-70
2022/01/25 12:45:30;;;;;;;57.33;27.47;;;4.20;86.90;;;;;;5091161;28;20443;-70
2022/01/25 12:47:55;;;;;;;51.50;26.10;;;4.30;86.60;;;;;;5091719;28;20975;-71
2022/01/25 12:50:22;;;;;;;51.60;26.97;;;4.40;85.70;;;;;;5092173;28;20501;-71
2022/01/25 12:52:49;;;;;;;53.53;25.60;;;4.60;85.30;;;;;;5091685;28;20190;-73
2022/01/25 12:55:21;;;;;;;55.73;26.23;;;4.90;84.70;;;;;;5089950;28;20421;-71
2022/01/25 12:57:49;;;;;;;49.77;25.87;;;5.00;83.10;;;;;;5090893;28;20815;-71
2022/01/25 13:00:15;;;;;;;55.63;27.43;;;5.10;82.80;;;;;;5091995;28;20884;-73
2022/01/25 13:02:41;;;;;;;58.70;27.53;;;5.30;82.70;;;;;;5091732;28;20424;-71
2022/01/25 13:05:21;;;;;;;58.60;27.80;;;5.40;82.20;;;;;;5085333;28;21353;-70
2022/01/25 13:07:48;;;;;;;48.47;24.33;;;5.40;81.70;;;;;;5091396;28;20519;-71
2022/01/25 13:10:24;;;;;;;52.20;25.67;;;5.40;81.50;;;;;;5091813;28;20443;-72
2022/01/25 13:12:59;;;;;;;58.20;26.90;;;5.60;81.70;;;;;;5091151;28;20421;-73
2022/01/25 13:15:39;;;;;;;55.47;26.73;;;5.80;81.20;;;;;;5090955;28;20434;-71
2022/01/25 13:18:12;;;;;;;59.00;27.60;;;5.90;80.20;;;;;;5084855;28;20448;-71
2022/01/25 13:20:40;;;;;;;55.90;26.43;;;5.80;79.90;;;;;;5089603;28;20461;-69
2022/01/25 13:23:06;;;;;;;47.83;25.37;;;5.70;80.20;;;;;;5089682;28;20421;-69
2022/01/25 13:26:06;;;;;;;57.57;26.93;;;5.70;80.60;;;;;;5090152;28;20988;-70
2022/01/25 13:31:05;;;;;;;64.20;27.67;;;5.60;80.60;;;;;;5091730;28;20437;-72
2022/01/25 13:33:31;;;;;;;50.77;25.60;;;5.60;80.00;;;;;;5088037;28;20472;-71
2022/01/25 13:35:57;;;;;;;55.57;24.80;;;5.60;80.30;;;;;;5091783;28;20445;-71
2022/01/25 13:38:30;;;;;;;52.20;25.07;;;5.60;80.20;;;;;;5092835;28;20222;-70
2022/01/25 13:46:30;;;;;;;53.47;24.73;;;5.60;81.10;;;;;;5088487;28;20448;-70
2022/01/25 13:48:59;;;;;;;50.90;25.60;;;5.70;80.50;;;;;;5095034;28;20406;-69
2022/01/25 13:51:29;;;;;;;52.17;26.33;;;5.70;79.60;;;;;;5094550;28;20433;-71
2022/01/25 13:54:00;;;;;;;54.83;26.17;;;5.70;79.60;;;;;;5093108;28;21188;-72
2022/01/25 13:56:33;;;;;;;68.73;26.60;;;5.90;79.70;;;;;;5094720;28;20773;-71
2022/01/25 13:59:00;;;;;;;60.63;27.07;;;5.90;78.90;;;;;;5094205;28;20512;-70
2022/01/25 14:01:28;;;;;;;59.90;26.50;;;5.90;78.60;;;;;;5095214;28;20473;-71
2022/01/25 14:04:17;;;;;;;53.43;28.23;;;5.70;79.30;;;;;;5094871;28;20421;-73
2022/01/25 14:06:49;;;;;;;60.70;30.23;;;5.50;80.00;;;;;;5088632;28;20437;-70
2022/01/25 14:09:32;;;;;;;55.83;26.67;;;5.40;81.20;;;;;;5090652;28;20478;-70
2022/01/25 14:25:31;;;;;;;70.22;28.45;;;4.40;85.60;;;;;;5089070;28;20457;-71
2022/01/25 14:27:59;;;;;;;64.87;28.80;;;4.30;86.30;;;;;;5090116;28;20201;-71
2022/01/25 14:30:26;;;;;;;61.77;28.50;;;4.10;87.00;;;;;;5088230;28;20933;-71
2022/01/25 14:32:56;;;;;;;64.73;29.13;;;4.10;87.60;;;;;;5090988;28;20504;-72
2022/01/25 14:35:22;;;;;;;66.00;26.87;;;4.00;87.70;;;;;;5105074;28;20431;-71
2022/01/25 14:37:49;;;;;;;76.20;29.17;;;4.00;88.10;;;;;;5104792;28;20453;-71
2022/01/25 14:40:16;;;;;;;67.93;27.73;;;4.00;88.30;;;;;;5099922;28;20202;-70
2022/01/25 14:42:44;;;;;;;63.55;28.73;;;4.00;88.40;;;;;;5090251;28;20413;-70
2022/01/25 14:45:20;;;;;;;63.08;27.55;;;3.90;88.60;;;;;;5092264;28;20191;-71
2022/01/25 14:47:48;;;;;;;72.00;29.70;;;3.70;89.20;;;;;;5092863;28;20209;-71
2022/01/25 14:50:31;;;;;;;69.63;29.05;;;3.60;89.90;;;;;;5094374;28;20175;-71
2022/01/25 14:53:04;;;;;;;62.57;28.20;;;3.50;90.10;;;;;;5086369;28;20178;-69
2022/01/25 14:55:31;;;;;;;80.15;29.85;;;3.40;90.40;;;;;;5093019;28;20412;-70
2022/01/25 15:00:48;;;;;;;61.58;27.95;;;3.30;90.90;;;;;;5094726;28;20659;-71
2022/01/25 15:03:15;;;;;;;82.40;31.85;;;3.20;91.30;;;;;;5094286;28;20214;-72
2022/01/25 15:05:41;;;;;;;80.88;30.50;;;3.20;91.40;;;;;;5091570;28;20226;-72
2022/01/25 15:08:07;;;;;;;77.38;30.70;;;3.20;91.50;;;;;;5093888;28;20264;-70
2022/01/25 15:10:34;;;;;;;70.17;29.10;;;3.20;91.50;;;;;;5093811;28;20188;-70